Monday, October 22, 2018, 3:41 AM GMT
Back to Local

CWTY, Trois Rivieres

Location: , , Canada Lat: 46.35
Local Time: 3:41 AM GMT ( 3:41 GMT) Lon: -72.517
Time Zone: GMT Elev: 19 ft

Show me the last for .
Show Coded

Time T Td Feel RH Dir Speed Gust Alt SLP Vis Weather Sky Remarks
2018-10-22 03:00 32 23 27 68 260° 5 - - 29.98 0 None
2018-10-22 02:00 31 26 28 79 250° 3 - - 29.98 0 None
2018-10-22 01:00 34 24 30 68 270° 5 - - 29.97 0 None
2018-10-22 00:00 35 24 29 63 280° 8 - - 29.95 0 None
2018-10-21 23:00 36 23 33 59 260° 3 - - 29.93 0 None
2018-10-21 22:00 38 26 32 61 300° 8 - - 29.91 0 None
2018-10-21 21:00 38 21 31 48 290° 10 - - 29.88 0 Peak wind: 21 mph (19 kts) from 340° at 13 min
2018-10-21 20:00 40 20 30 44 310° 13 20 - 29.87 0 Peak wind: 26 mph (23 kts) from 330° at 38 min
2018-10-21 19:00 40 19 30 43 300° 15 21 - 29.86 0 Peak wind: 21 mph (19 kts) from 300° at 18 min
2018-10-21 18:00 39 22 28 49 300° 17 24 - 29.85 0 Peak wind: 25 mph (22 kts) from 300° at 24 min
2018-10-21 17:00 39 22 29 50 300° 14 21 - 29.84 0 Peak wind: 24 mph (21 kts) from 300° at 19 min
2018-10-21 16:00 40 20 30 44 290° 14 21 - 29.83 0 Peak wind: 23 mph (20 kts) from 290° at 13 min
2018-10-21 15:00 38 22 27 52 310° 17 25 - 29.83 0 Peak wind: 25 mph (22 kts) from 300° at 51 min
2018-10-21 14:00 37 23 26 57 310° 12 20 - 29.82 0 Peak wind: 23 mph (20 kts) from 280° at 41 min
2018-10-21 13:00 37 26 32 62 280° 7 - - 29.80 0 None
2018-10-21 12:00 36 26 32 65 260° 5 - - 29.77 0 None
2018-10-21 11:00 36 25 30 64 270° 7 - - 29.74 0 None
2018-10-21 10:00 35 25 30 67 250° 6 - - 29.72 0 None
2018-10-21 09:00 36 27 31 69 250° 6 - - 29.70 0 None
2018-10-21 08:00 37 28 32 71 250° 6 - - 29.67 0 None
2018-10-21 07:00 37 30 33 74 240° 5 - - 29.66 0 None
2018-10-21 06:00 37 30 32 76 250° 6 - - 29.65 0 None
2018-10-21 05:00 38 33 33 81 230° 6 - - 29.63 0 None
2018-10-21 04:00 38 32 33 76 300° 7 - - 29.60 0 None

Support USWX by starting your Amazon purchase here.